• Join FlightAware (Why Join?)
  • Login
  • US Flag 
10:38PM EST


 

Airport Tracker/Info


-or-


 

Live Flight TrackerFlight Track Log ✈ N977MR ✈ 29-Aug-2014 ✈ KSAT - KHOU

Flight Track Log - Related Links

Times and Time Zones

All times are in EDT time to prevent confusion due to time zone crossing. See the N977MR flight status page for this flight to view local times or setup timezone preferences in your user account.

Time Position Orientation Groundspeed Altitude Reporting Facility
EDT Latitude Longitude Course Direction KTS MPH feet Rate Location/Type
03:29PM 29.6072 -98.2722 90° East 255 293 9,800  Level Houston Center
03:30PM 29.6228 -98.1800 79° East 291 335 11,800 1,860 Climbing Houston Center
03:31PM 29.6417 -98.0703 79° East 323 372 13,700 1,800 Climbing Houston Center
03:32PM 29.6500 -97.9416 90° East  Level FlightAware Approximate
03:32PM 29.6428 -97.9606 89° East 341 392 15,600  Level Houston Center
03:33PM 29.6500 -97.8496 90° East  Level FlightAware Approximate
03:33PM 29.5808 -97.8625 126° Southeast 351 404 17,600  Level Houston Center
03:34PM 29.6500 -97.7577 90° East  Level FlightAware Approximate
03:34PM 29.5275 -97.7881 129° Southeast 353 406 18,900  Level Houston Center
03:35PM 29.4808 -97.6600 113° Southeast 366 421 20,700 1,620 Climbing Houston Center
03:36PM 29.4367 -97.5583 116° Southeast 367 422 22,300 1,440 Climbing Houston Center
03:37PM 29.3725 -97.4672 129° Southeast 370 426 23,700 1,200 Climbing Houston Center
03:38PM 29.3094 -97.3742 128° Southeast 370 426 24,900 600 Climbing Houston Center
03:39PM 29.2586 -97.2625 118° Southeast 401 461 25,000 -360 Climbing Houston Center
03:40PM 29.2122 -97.1178 110° East 410 472 24,200 -540 Descending Houston Center
03:41PM 29.1725 -97.0161 114° Southeast 373 429 24,000 -120 Descending Houston Center
03:42PM 29.0797 -96.9861 164° South 345 397 24,000  Level Houston Center
03:43PM 28.9850 -96.9653 169° South 354 407 24,000  Level Houston Center
03:44PM 28.9406 -96.8708 118° Southeast 374 430 24,000 -600 Level Houston Center
03:45PM 28.9944 -96.7444 64° Northeast 375 432 22,800 -1,320 Descending Houston Center
03:46PM 29.0331 -96.6394 67° East 362 417 21,300 -1,500 Descending Houston Center
03:47PM 29.0711 -96.5394 66° East 349 402 19,700 -1,620 Descending Houston Center
03:48PM 29.1111 -96.4422 65° Northeast 343 395 18,000 -1,740 Descending Houston Center
03:49PM 29.1467 -96.3356 69° East 354 407 16,500 -1,860 Descending Houston Center
03:49PM 29.1542 -96.3131 69° East 362 417 16,100 -1,740 Descending Houston Center
03:50PM 29.1828 -96.2167 71° East 345 397 14,600 -1,740 Descending Houston Center
03:51PM 29.2164 -96.1222 68° East 314 361 12,800 -1,200 Descending Houston Center
03:53PM 29.2522 -96.0283 66° East 312 359 12,000 -1,080 Descending Houston Center
03:53PM 29.2869 -95.9442 65° Northeast 299 344 10,700 -1,680 Descending Houston Center
03:54PM 29.3169 -95.8544 69° East 284 327 8,900 -1,740 Descending Houston Center
03:55PM 29.3211 -95.8419 69° East 292 336 8,700 -1,380 Descending Houston Center
03:56PM 29.3369 -95.7708 76° East 261 300 7,500 -1,260 Descending Houston Center
03:56PM 29.3397 -95.7606 73° East 271 312 7,400 -900 Descending Houston Center
03:57PM 29.3656 -95.6933 66° East 235 270 6,500 -720 Descending Houston Center
03:58PM 29.3992 -95.6222 62° Northeast 236 272 6,000 -720 Descending Houston Center
03:59PM 29.4311 -95.5583 60° Northeast 225 259 5,100 -900 Descending Houston Center
04:00PM 29.4656 -95.4967 57° Northeast 229 264 4,200 -960 Descending Houston Center
04:01PM 29.4986 -95.4472 52° Northeast 212 244 3,300 -960 Descending Houston Center
04:01PM 29.5069 -95.4339 54° Northeast 218 251 3,100 -720 Descending Houston Center
04:02PM 29.5344 -95.4022 45° Northeast 186 214 2,600 -720 Descending Houston Center
04:02PM 29.5431 -95.3919 46° Northeast 194 223 2,400 -720 Descending Houston Center
04:03PM 29.5708 -95.3617 43° Northeast 164 189 1,900 -720 Descending Houston Center
04:03PM 29.5767 -95.3542 48° Northeast 179 206 1,700 -900 Descending Houston Center
04:04PM 29.6047 -95.3217 45° Northeast 177 204 1,000 -780 Descending Houston Center
04:04PM 29.6122 -95.3147 39° Northeast 178 205 900 -840 Descending Houston Center
04:05PM 29.6336 -95.2917 43° Northeast 123 142 200 -780 Descending Houston Center
04:05PM 29.6378 -95.2867 46° Northeast 143 165 100 -300 Descending Houston Center
04:07PM 29.6333 -95.2667 90° East  Level FlightAware Approximate